Aviation Digital Data Service (ADDS)

Output produced by TAFs form (2138 UTC 31 July 2014)
found at http://aviationweather.gov/adds/tafs/
 
KAMA 311733Z 3118/0118 04009KT P6SM SCT050 BKN150 
     FM010300 10007KT P6SM BKN120 
     FM011300 29007KT P6SM OVC120